Aviation Digital Data Service (ADDS)

Output produced by METARs form (2335 UTC 23 May 2022)
found at http://www.aviationweather.gov/metar/data/
 
MGGT 231700Z 2318/2418 18008KT 9999 SCT018 SCT090 TX26/2320Z TN17/2412Z 
     PROB40 
     TEMPO 2318/2406 16012KT 7000 TSRA SCT020TCU FEW025CB BKN080 
     BECMG 2400/2402 BKN016 
     PROB30 
     TEMPO 2406/2416 00000KT 5000 BRDZ SCT012 
     BECMG 2416/2418 SCT018
       
MGPB 231700Z 2318/2418 06010KT 9999 SCT018 BKN090 TX28/2320Z TN21/2412Z 
     TEMPO 2318/2406 7000 RADZ BKN018 OVC080 
     PROB30 2321/2404 TS FEW025CB 
     BECMG 2400/2402 00000KT SCT016 
     BECMG 2416/2418 06008KT SCT018
       
MGSJ 231700Z 2318/2418 18008KT 9999 SCT018 SCT090 TX31/2320Z TN23/2412Z 
     PROB40 
     TEMPO 2318/2406 16012KT 7000 TSRA SCT020TCU FEW025CB 
     BECMG 2400/2402 00000KT SCT016 
     BECMG 2416/2418 18008KT SCT018